createdAt,value
2018-11-10T00:01:01.381Z,8.90
2018-11-10T00:06:06.263Z,9.00
2018-11-10T00:11:10.912Z,8.90
2018-11-10T00:16:15.425Z,8.90
2018-11-10T00:21:20.963Z,8.90
2018-11-10T00:26:25.599Z,8.90
2018-11-10T00:31:36.383Z,8.90
2018-11-10T00:36:41.037Z,8.80
2018-11-10T00:41:45.767Z,8.90
2018-11-10T00:46:50.924Z,8.90
2018-11-10T00:51:55.569Z,8.80
2018-11-10T00:57:00.102Z,8.80
2018-11-10T01:02:05.292Z,8.80
2018-11-10T01:07:09.868Z,8.90
2018-11-10T01:12:15.088Z,8.90
2018-11-10T01:17:19.748Z,8.80
2018-11-10T01:22:24.384Z,8.80
2018-11-10T01:27:29.417Z,8.80
2018-11-10T01:32:34.141Z,8.80
2018-11-10T01:37:39.012Z,8.70
2018-11-10T01:42:43.768Z,8.70
2018-11-10T01:47:49.920Z,8.70
2018-11-10T01:58:21.928Z,8.50
2018-11-10T02:03:26.366Z,8.40
2018-11-10T02:08:30.858Z,8.40
2018-11-10T02:13:35.289Z,8.40
2018-11-10T02:18:40.861Z,8.40
2018-11-10T02:23:45.847Z,8.40
2018-11-10T02:28:50.283Z,8.40
2018-11-10T02:33:54.974Z,8.50
2018-11-10T02:38:59.615Z,8.40
2018-11-10T02:44:04.132Z,8.40
2018-11-10T02:49:09.041Z,8.40
2018-11-10T02:54:13.713Z,8.30
2018-11-10T02:59:18.172Z,8.40
2018-11-10T03:04:22.704Z,8.40
2018-11-10T03:09:27.446Z,8.40
2018-11-10T03:14:32.183Z,8.30
2018-11-10T03:19:36.798Z,8.40
2018-11-10T03:24:45.052Z,8.30
2018-11-10T03:29:49.962Z,8.30
2018-11-10T03:34:55.228Z,8.20
2018-11-10T03:39:59.894Z,8.20
2018-11-10T03:45:04.601Z,8.20
2018-11-10T03:50:09.886Z,8.30
2018-11-10T03:55:14.507Z,8.30
2018-11-10T04:00:19.626Z,8.30
2018-11-10T04:05:27.338Z,8.20
2018-11-10T04:10:32.123Z,8.10
2018-11-10T04:15:37.414Z,8.10
2018-11-10T04:20:42.017Z,8.10
2018-11-10T04:25:46.614Z,8.10
2018-11-10T04:30:51.236Z,8.00
2018-11-10T04:35:56.424Z,8.00
2018-11-10T04:41:00.866Z,7.90
2018-11-10T04:46:07.067Z,7.90
2018-11-10T04:51:12.118Z,7.90
2018-11-10T04:56:16.708Z,8.00
2018-11-10T05:01:21.343Z,8.00
2018-11-10T05:06:25.998Z,8.00
2018-11-10T05:11:30.640Z,7.90
2018-11-10T05:16:35.128Z,7.90
2018-11-10T05:21:39.791Z,7.90
2018-11-10T05:26:44.524Z,7.80
2018-11-10T05:37:16.464Z,7.70
2018-11-10T05:42:21.013Z,7.60
2018-11-10T05:47:25.704Z,7.60
2018-11-10T05:52:30.145Z,7.40
2018-11-10T05:57:34.691Z,7.40
2018-11-10T06:02:39.440Z,7.40
2018-11-10T06:07:43.615Z,7.30
2018-11-10T06:12:48.249Z,7.30
2018-11-10T06:17:52.819Z,7.30
2018-11-10T06:22:58.375Z,7.30
2018-11-10T06:33:13.272Z,7.20
2018-11-10T06:38:17.640Z,7.20
2018-11-10T06:43:22.244Z,7.20
2018-11-10T06:48:27.149Z,7.10
2018-11-10T06:53:31.695Z,7.10
2018-11-10T06:58:36.276Z,7.20
2018-11-10T07:03:40.812Z,7.20
2018-11-10T07:08:45.866Z,7.30
2018-11-10T07:13:50.189Z,7.30
2018-11-10T07:18:54.801Z,7.30
2018-11-10T07:23:59.161Z,7.30
2018-11-10T07:29:03.887Z,7.30
2018-11-10T07:34:08.576Z,7.30
2018-11-10T07:39:14.264Z,7.40
2018-11-10T07:44:18.767Z,7.50
2018-11-10T07:49:23.781Z,7.60
2018-11-10T07:54:28.440Z,7.70
2018-11-10T07:59:33.038Z,7.90
2018-11-10T08:04:37.355Z,7.80
2018-11-10T08:09:42.499Z,7.90
2018-11-10T08:14:47.154Z,7.80
2018-11-10T08:19:51.834Z,7.90
2018-11-10T08:24:56.329Z,7.90
2018-11-10T08:30:00.681Z,8.10
2018-11-10T08:35:05.537Z,8.00
2018-11-10T08:40:12.957Z,8.20
2018-11-10T08:45:18.233Z,8.20
2018-11-10T08:50:22.603Z,8.10
2018-11-10T08:55:27.137Z,8.30
2018-11-10T09:00:31.615Z,8.30
2018-11-10T09:05:37.162Z,8.10
2018-11-10T09:10:41.784Z,8.00
2018-11-10T09:15:46.158Z,7.90
2018-11-10T09:20:50.586Z,7.80
2018-11-10T09:25:55.047Z,7.90
2018-11-10T09:31:00.249Z,7.90
2018-11-10T09:36:04.608Z,8.00
2018-11-10T09:41:09.132Z,8.20
2018-11-10T09:46:13.697Z,8.20
2018-11-10T09:51:19.327Z,8.30
2018-11-10T09:56:23.965Z,8.50
2018-11-10T10:01:28.576Z,8.70
2018-11-10T10:06:32.884Z,9.00
2018-11-10T10:11:38.386Z,8.70
2018-11-10T10:16:42.890Z,8.90
2018-11-10T10:21:47.259Z,9.20
2018-11-10T10:26:51.771Z,9.10
2018-11-10T10:31:56.265Z,9.20
2018-11-10T10:37:00.965Z,9.30
2018-11-10T10:42:05.330Z,9.40
2018-11-10T10:47:10.024Z,9.40
2018-11-10T10:52:15.094Z,9.70
2018-11-10T10:57:26.128Z,10.00
2018-11-10T11:02:36.391Z,10.00
2018-11-10T11:07:41.428Z,9.90
2018-11-10T11:12:46.730Z,10.00
2018-11-10T11:17:51.212Z,10.10
2018-11-10T11:22:55.399Z,10.50
2018-11-10T11:27:59.707Z,10.20
2018-11-10T11:33:04.347Z,10.00
2018-11-10T11:38:15.470Z,9.90
2018-11-10T11:43:20.062Z,10.10
2018-11-10T11:48:24.615Z,10.00
2018-11-10T11:53:29.932Z,10.00
2018-11-10T11:58:34.331Z,10.20
2018-11-10T12:03:38.981Z,9.90
2018-11-10T12:08:45.252Z,9.90
2018-11-10T12:13:50.677Z,10.00
2018-11-10T12:18:55.237Z,10.30
2018-11-10T12:29:28.495Z,10.90
2018-11-10T12:34:54.415Z,11.00
2018-11-10T12:39:58.729Z,10.60
2018-11-10T12:45:03.037Z,10.50
2018-11-10T12:50:09.501Z,10.70
2018-11-10T12:55:15.244Z,10.80
2018-11-10T13:00:20.246Z,10.70
2018-11-10T13:05:24.737Z,10.90
2018-11-10T13:10:29.206Z,10.70
2018-11-10T13:15:34.388Z,10.30
2018-11-10T13:20:39.971Z,10.10
2018-11-10T13:25:44.339Z,10.20
2018-11-10T13:30:49.083Z,10.20
2018-11-10T13:35:54.749Z,10.30
2018-11-10T13:40:59.257Z,10.40
2018-11-10T13:46:04.500Z,10.50
2018-11-10T13:51:09.986Z,10.50
2018-11-10T13:56:14.489Z,10.60
2018-11-10T14:01:19.000Z,10.50
2018-11-10T14:06:24.008Z,10.60
2018-11-10T14:11:28.545Z,10.80
2018-11-10T14:16:33.334Z,10.60
2018-11-10T14:21:45.856Z,10.50
2018-11-10T14:26:51.807Z,10.30
2018-11-10T14:31:56.793Z,10.10
2018-11-10T14:37:01.306Z,10.30
2018-11-10T14:42:06.284Z,10.30
2018-11-10T14:47:10.896Z,10.30
2018-11-10T14:52:15.843Z,10.20
2018-11-10T14:57:21.225Z,10.20
2018-11-10T15:02:25.945Z,10.00
2018-11-10T15:07:30.940Z,10.00
2018-11-10T15:12:36.151Z,9.80
2018-11-10T15:17:41.148Z,9.70
2018-11-10T15:22:46.636Z,9.50
2018-11-10T15:27:51.343Z,9.30
2018-11-10T15:32:55.900Z,9.00
2018-11-10T15:38:01.131Z,8.80
2018-11-10T15:43:05.776Z,8.70
2018-11-10T15:48:12.824Z,8.40
2018-11-10T15:53:17.933Z,8.10
2018-11-10T15:58:22.446Z,8.10
2018-11-10T16:03:27.163Z,7.80
2018-11-10T16:08:33.814Z,7.60
2018-11-10T16:13:38.291Z,7.50
2018-11-10T16:18:43.258Z,7.40
2018-11-10T16:23:48.734Z,7.30
2018-11-10T16:28:53.304Z,7.40
2018-11-10T16:33:58.594Z,7.30
2018-11-10T16:39:05.020Z,7.10
2018-11-10T16:44:09.488Z,7.00
2018-11-10T16:49:13.784Z,6.70
2018-11-10T16:54:18.371Z,6.60
2018-11-10T16:59:22.787Z,6.70
2018-11-10T17:04:28.083Z,6.60
2018-11-10T17:09:32.513Z,6.60
2018-11-10T17:14:37.284Z,6.60
2018-11-10T17:19:41.790Z,6.60
2018-11-10T17:24:47.352Z,6.80
2018-11-10T17:29:53.034Z,6.80
2018-11-10T17:34:57.545Z,6.80
2018-11-10T17:40:03.024Z,6.90
2018-11-10T17:45:09.322Z,7.00
2018-11-10T17:50:15.056Z,7.10
2018-11-10T17:55:19.562Z,7.20
2018-11-10T18:00:24.074Z,7.20
2018-11-10T18:05:28.830Z,7.30
2018-11-10T18:10:33.136Z,7.40
2018-11-10T18:15:38.207Z,7.30
2018-11-10T18:20:42.642Z,7.30
2018-11-10T18:25:47.078Z,7.30
2018-11-10T18:30:52.243Z,7.30
2018-11-10T18:35:56.976Z,7.30
2018-11-10T18:41:01.472Z,7.20
2018-11-10T18:46:06.523Z,7.30
2018-11-10T18:51:11.719Z,7.30
2018-11-10T18:56:16.430Z,7.30
2018-11-10T19:01:21.273Z,7.40
2018-11-10T19:06:26.930Z,7.50
2018-11-10T19:11:31.585Z,7.50
2018-11-10T19:16:38.327Z,7.60
2018-11-10T19:21:43.509Z,7.50
2018-11-10T19:26:48.544Z,7.50
2018-11-10T19:31:53.419Z,7.50
2018-11-10T19:36:59.044Z,7.50
2018-11-10T19:42:03.490Z,7.50
2018-11-10T19:47:08.741Z,7.60
2018-11-10T19:52:14.064Z,7.60
2018-11-10T19:57:19.198Z,7.70
2018-11-10T20:07:55.883Z,7.60
2018-11-10T20:13:00.254Z,7.60
2018-11-10T20:18:05.863Z,7.50
2018-11-10T20:23:10.552Z,7.40
2018-11-10T20:28:14.992Z,7.20
2018-11-10T20:33:19.664Z,7.10
2018-11-10T20:38:25.685Z,6.90
2018-11-10T20:43:30.355Z,6.90
2018-11-10T20:48:35.304Z,7.00
2018-11-10T20:53:39.865Z,7.10
2018-11-10T20:58:44.252Z,7.10
2018-11-10T21:03:51.200Z,6.90
2018-11-10T21:08:55.662Z,6.80
2018-11-10T21:14:00.058Z,6.70
2018-11-10T21:19:05.617Z,6.80
2018-11-10T21:24:10.078Z,6.80
2018-11-10T21:29:14.710Z,6.90
2018-11-10T21:34:19.492Z,6.90
2018-11-10T21:39:23.876Z,7.00
2018-11-10T21:44:28.421Z,7.10
2018-11-10T21:49:32.915Z,7.20
2018-11-10T21:54:37.242Z,7.30
2018-11-10T21:59:41.917Z,7.20
2018-11-10T22:04:46.502Z,7.40
2018-11-10T22:10:10.375Z,7.50
2018-11-10T22:15:16.420Z,7.60
2018-11-10T22:20:22.118Z,7.70
2018-11-10T22:25:26.929Z,7.80
2018-11-10T22:30:31.783Z,7.80
2018-11-10T22:35:36.404Z,7.80
2018-11-10T22:40:40.960Z,7.90
2018-11-10T22:45:46.033Z,7.90
2018-11-10T22:50:50.692Z,7.90
2018-11-10T22:55:55.301Z,7.90
2018-11-10T23:01:05.354Z,7.90
2018-11-10T23:06:10.858Z,7.90
2018-11-10T23:11:15.433Z,7.80
2018-11-10T23:16:20.124Z,7.70
2018-11-10T23:21:24.519Z,7.70
2018-11-10T23:26:29.159Z,7.70
2018-11-10T23:31:33.543Z,7.70
2018-11-10T23:36:38.077Z,7.60
2018-11-10T23:41:42.724Z,7.70
2018-11-10T23:46:47.194Z,7.60
2018-11-10T23:51:51.861Z,7.50
2018-11-10T23:56:57.817Z,7.50
